Time;durP1;ratioP1;P1;durP2;ratioP2;P2;SDS_P1;SDS_P2;PMS_P1;PMS_P2;Temp;Humidity;BMP_temperature;BMP_pressure;BME280_temperature;BME280_humidity;BME280_pressure;Samples;Min_cycle;Max_cycle;Signal;HPM_P1;HPM_P2
2022/11/21 00:00:40;;;;;;;27.50;16.67;;;1.80;99.90;;;;;;6232277;23;20020;-79
2022/11/21 00:03:05;;;;;;;31.38;17.80;;;1.80;99.90;;;;;;6198646;23;20532;-79
2022/11/21 00:05:32;;;;;;;26.95;16.25;;;1.80;99.90;;;;;;6236607;23;20071;-80
2022/11/21 00:07:58;;;;;;;28.17;15.40;;;1.80;99.90;;;;;;6236121;23;20016;-80
2022/11/21 00:10:25;;;;;;;27.83;15.73;;;1.80;99.90;;;;;;6229252;23;20020;-79
2022/11/21 00:12:55;;;;;;;24.45;15.55;;;1.80;99.90;;;;;;6230227;23;20018;-79
2022/11/21 00:15:21;;;;;;;26.38;15.65;;;1.80;99.90;;;;;;6229798;23;20012;-79
2022/11/21 00:17:47;;;;;;;29.77;16.13;;;1.80;99.90;;;;;;6204897;23;20019;-79
2022/11/21 00:20:12;;;;;;;28.40;16.60;;;1.80;99.90;;;;;;6176440;23;20020;-78
2022/11/21 00:22:38;;;;;;;26.17;15.50;;;1.80;99.90;;;;;;6199621;23;20074;-78
2022/11/21 00:25:04;;;;;;;24.98;15.95;;;1.80;99.90;;;;;;6233782;23;20051;-78
2022/11/21 00:27:29;;;;;;;26.95;16.27;;;1.80;99.90;;;;;;6205840;23;20012;-79
2022/11/21 00:29:55;;;;;;;27.73;16.42;;;1.80;99.90;;;;;;6176255;23;20600;-78
2022/11/21 00:32:21;;;;;;;29.00;16.77;;;1.80;99.90;;;;;;6201593;23;20023;-79
2022/11/21 00:34:46;;;;;;;27.88;16.95;;;1.70;99.90;;;;;;6228954;23;20011;-78
2022/11/21 00:37:12;;;;;;;27.55;17.25;;;1.70;99.90;;;;;;6203561;23;20020;-78
2022/11/21 00:39:37;;;;;;;28.33;16.05;;;1.70;99.90;;;;;;6231323;23;20019;-79
2022/11/21 00:42:03;;;;;;;29.08;16.95;;;1.70;99.90;;;;;;6230196;23;20087;-78
2022/11/21 00:44:29;;;;;;;27.65;15.07;;;1.70;99.90;;;;;;6231305;23;20019;-79
2022/11/21 00:46:54;;;;;;;28.67;15.98;;;1.70;99.90;;;;;;6201458;23;20016;-78
2022/11/21 00:49:20;;;;;;;27.52;16.15;;;1.70;99.90;;;;;;6233618;23;20012;-78
2022/11/21 00:51:45;;;;;;;25.90;16.17;;;1.70;99.90;;;;;;6206126;23;20493;-78
2022/11/21 00:54:11;;;;;;;26.08;15.65;;;1.70;99.90;;;;;;6206614;23;20020;-78
2022/11/21 00:56:36;;;;;;;29.95;17.30;;;1.70;99.90;;;;;;6205037;23;20109;-78
2022/11/21 00:59:02;;;;;;;31.13;17.00;;;1.60;99.90;;;;;;6231524;23;20046;-79
2022/11/21 01:01:28;;;;;;;28.25;15.98;;;1.60;99.90;;;;;;6180791;23;20008;-79
2022/11/21 01:03:53;;;;;;;30.20;17.08;;;1.60;99.90;;;;;;6197160;23;20344;-78
2022/11/21 01:06:19;;;;;;;28.85;16.55;;;1.50;99.90;;;;;;6232105;23;20016;-78
2022/11/21 01:08:45;;;;;;;28.50;16.73;;;1.50;99.90;;;;;;6205393;23;20052;-78
2022/11/21 01:11:14;;;;;;;27.65;16.13;;;1.50;99.90;;;;;;6200510;23;20020;-78
2022/11/21 01:13:40;;;;;;;32.67;17.35;;;1.40;99.90;;;;;;6202651;23;20027;-79
2022/11/21 01:16:14;;;;;;;24.67;14.75;;;1.40;99.90;;;;;;6182020;23;20500;-79
2022/11/21 01:18:40;;;;;;;25.38;15.77;;;1.30;99.90;;;;;;6208221;23;20074;-79
2022/11/21 01:21:15;;;;;;;26.70;15.50;;;1.20;99.90;;;;;;6207439;23;20016;-79
2022/11/21 01:23:41;;;;;;;27.27;14.93;;;0.90;99.90;;;;;;6204163;23;20141;-79
2022/11/21 01:26:11;;;;;;;29.52;16.63;;;1.00;99.90;;;;;;6235893;23;20566;-79
2022/11/21 01:28:37;;;;;;;29.60;15.70;;;1.00;99.90;;;;;;6231052;23;20008;-78
2022/11/21 01:31:08;;;;;;;28.90;16.70;;;0.90;99.90;;;;;;6231629;23;20073;-78
2022/11/21 01:33:34;;;;;;;27.27;16.10;;;0.90;99.90;;;;;;6200916;23;20024;-78
2022/11/21 01:36:08;;;;;;;26.65;15.98;;;0.80;99.90;;;;;;6204228;23;20119;-78
2022/11/21 01:38:33;;;;;;;30.35;16.98;;;0.80;99.90;;;;;;6234061;23;20429;-78
2022/11/21 01:40:59;;;;;;;30.17;16.55;;;0.80;99.90;;;;;;6206844;23;20012;-78
2022/11/21 01:43:25;;;;;;;26.13;15.50;;;1.20;99.90;;;;;;6203029;23;20020;-78
2022/11/21 01:45:58;;;;;;;24.60;15.63;;;0.70;99.90;;;;;;6206101;23;20078;-78
2022/11/21 01:48:46;;;;;;;27.65;14.90;;;0.60;99.90;;;;;;6233694;23;20020;-78
2022/11/21 01:51:42;;;;;;;29.52;16.08;;;0.50;99.90;;;;;;6233994;23;20012;-79
2022/11/21 01:54:32;;;;;;;29.17;15.80;;;0.40;99.90;;;;;;6207062;23;20333;-79
2022/11/21 01:57:06;;;;;;;26.88;15.30;;;0.40;99.90;;;;;;6201916;23;20039;-78
2022/11/21 01:59:42;;;;;;;30.30;15.57;;;0.40;99.90;;;;;;6203966;23;20031;-78
2022/11/21 02:02:10;;;;;;;26.52;15.70;;;0.30;99.90;;;;;;6196319;23;20020;-78
2022/11/21 02:04:40;;;;;;;26.52;16.52;;;0.20;99.90;;;;;;6228910;23;20020;-78
2022/11/21 02:07:06;;;;;;;28.35;15.63;;;0.20;99.90;;;;;;6206030;23;20016;-78
2022/11/21 02:09:34;;;;;;;26.60;15.68;;;0.20;99.90;;;;;;6206700;23;20498;-78
2022/11/21 02:12:06;;;;;;;25.95;15.77;;;0.20;99.90;;;;;;6224199;23;20019;-78
2022/11/21 02:14:32;;;;;;;30.38;16.10;;;0.20;99.90;;;;;;6225915;23;20087;-78
2022/11/21 02:17:02;;;;;;;26.23;15.45;;;0.20;99.90;;;;;;6228430;23;20078;-78
2022/11/21 02:19:50;;;;;;;25.70;14.98;;;0.10;99.90;;;;;;6205454;23;20093;-78
2022/11/21 02:22:45;;;;;;;28.73;16.55;;;0.10;99.90;;;;;;6172355;23;20027;-78
2022/11/21 02:25:17;;;;;;;27.35;16.20;;;0.10;99.90;;;;;;6201569;23;20457;-78
2022/11/21 02:27:44;;;;;;;27.25;15.90;;;0.00;99.90;;;;;;6202362;23;20539;-78
2022/11/21 02:30:10;;;;;;;28.52;16.02;;;0.00;99.90;;;;;;6204131;23;20019;-78
2022/11/21 02:32:39;;;;;;;27.65;16.48;;;0.00;99.90;;;;;;6228068;23;20035;-78
2022/11/21 02:35:06;;;;;;;26.67;15.13;;;-0.10;99.90;;;;;;6205843;23;20077;-78
2022/11/21 02:37:37;;;;;;;27.58;15.18;;;-0.10;99.90;;;;;;6205949;23;20020;-78
2022/11/21 02:40:08;;;;;;;29.23;15.75;;;-0.10;99.90;;;;;;6202144;23;20024;-78
2022/11/21 02:42:40;;;;;;;29.05;15.88;;;-0.10;99.90;;;;;;6225689;23;20125;-78
2022/11/21 02:45:13;;;;;;;29.35;15.27;;;-0.20;99.90;;;;;;6228849;23;20020;-78
2022/11/21 02:47:40;;;;;;;26.25;15.65;;;-0.20;99.90;;;;;;6233331;23;20506;-78
2022/11/21 02:50:11;;;;;;;25.80;15.65;;;-0.20;99.90;;;;;;6229347;23;20012;-78
2022/11/21 02:52:37;;;;;;;26.85;17.10;;;-0.20;99.90;;;;;;6225023;23;20019;-78
2022/11/21 02:55:04;;;;;;;30.05;17.17;;;-0.10;99.90;;;;;;6195108;23;20028;-78
2022/11/21 02:57:29;;;;;;;28.23;15.98;;;-0.30;99.90;;;;;;6205497;23;20020;-78
2022/11/21 02:59:55;;;;;;;26.70;15.52;;;-0.30;99.90;;;;;;6206860;23;20024;-78
2022/11/21 03:02:20;;;;;;;28.42;15.90;;;-0.30;99.90;;;;;;6229163;23;20455;-78
2022/11/21 03:04:46;;;;;;;26.27;15.43;;;-0.40;99.90;;;;;;6232777;23;20024;-78
2022/11/21 03:07:12;;;;;;;26.90;16.00;;;-0.40;99.90;;;;;;6206959;23;20087;-78
2022/11/21 03:09:37;;;;;;;25.92;15.10;;;-0.40;99.90;;;;;;6206851;23;20020;-77
2022/11/21 03:12:09;;;;;;;30.00;15.98;;;-0.40;99.90;;;;;;6229555;23;20634;-77
2022/11/21 03:14:36;;;;;;;30.25;16.48;;;-0.50;99.90;;;;;;6233925;23;20014;-77
2022/11/21 03:17:02;;;;;;;26.05;16.65;;;-0.50;99.90;;;;;;6233572;23;20020;-78
2022/11/21 03:19:28;;;;;;;26.73;15.80;;;-0.50;99.90;;;;;;6233675;23;20444;-78
2022/11/21 03:21:54;;;;;;;29.40;16.95;;;-0.50;99.90;;;;;;6202721;23;20024;-78
2022/11/21 03:24:20;;;;;;;28.48;16.85;;;-0.50;99.90;;;;;;6232875;23;20020;-78
2022/11/21 03:26:46;;;;;;;26.38;16.08;;;-0.50;99.90;;;;;;6181214;23;20051;-77
2022/11/21 03:29:11;;;;;;;27.95;16.23;;;-0.50;99.90;;;;;;6233315;23;20008;-78
2022/11/21 03:31:37;;;;;;;30.60;16.23;;;-0.50;99.90;;;;;;6230223;23;20016;-78
2022/11/21 03:34:02;;;;;;;27.92;16.08;;;-0.60;99.90;;;;;;6231327;23;20154;-78
2022/11/21 03:36:28;;;;;;;33.08;18.10;;;-0.60;99.90;;;;;;6237327;23;20012;-78
2022/11/21 03:38:58;;;;;;;30.25;16.58;;;-0.40;99.90;;;;;;6238469;23;20012;-78
2022/11/21 03:41:28;;;;;;;27.02;15.45;;;-0.50;99.90;;;;;;6238652;23;20019;-78
2022/11/21 03:43:58;;;;;;;32.80;17.70;;;-0.60;99.90;;;;;;6213791;23;20016;-78
2022/11/21 03:46:24;;;;;;;29.25;16.33;;;-0.60;99.90;;;;;;6212589;23;20026;-78
2022/11/21 03:48:50;;;;;;;29.10;16.17;;;-0.60;99.90;;;;;;6213316;23;20016;-77
2022/11/21 03:51:15;;;;;;;32.95;16.65;;;-0.60;99.90;;;;;;6213703;23;20448;-78
2022/11/21 03:53:41;;;;;;;31.20;15.57;;;-0.60;99.90;;;;;;6213950;23;20013;-78
2022/11/21 03:56:07;;;;;;;31.30;16.83;;;-0.60;99.90;;;;;;6240688;23;20012;-78
2022/11/21 03:58:32;;;;;;;28.25;16.15;;;-0.60;99.90;;;;;;6214134;23;20348;-78
2022/11/21 04:00:58;;;;;;;26.70;15.38;;;-0.60;99.90;;;;;;6241125;23;20008;-78
2022/11/21 04:03:24;;;;;;;26.35;15.10;;;-0.70;99.90;;;;;;6212697;23;20016;-78
2022/11/21 04:05:49;;;;;;;29.80;15.98;;;-0.70;99.90;;;;;;6214348;23;20078;-78
2022/11/21 04:08:15;;;;;;;29.75;15.48;;;-0.80;99.90;;;;;;6240069;23;20476;-78
2022/11/21 04:10:46;;;;;;;29.80;15.70;;;-0.70;99.90;;;;;;6213868;23;20020;-78
2022/11/21 04:13:12;;;;;;;30.65;16.48;;;-0.70;99.90;;;;;;6241293;23;20019;-78
2022/11/21 04:15:40;;;;;;;28.90;15.95;;;-0.70;99.90;;;;;;6240797;23;20016;-78
2022/11/21 04:18:06;;;;;;;32.45;17.38;;;-0.70;99.90;;;;;;6239020;23;20011;-78
2022/11/21 04:20:31;;;;;;;26.73;16.55;;;-0.70;99.90;;;;;;6187501;23;20046;-78
2022/11/21 04:22:57;;;;;;;28.50;15.68;;;-0.70;99.90;;;;;;6238912;23;20282;-78
2022/11/21 04:25:22;;;;;;;29.98;16.77;;;-0.50;99.90;;;;;;6213728;23;20019;-78
2022/11/21 04:27:48;;;;;;;25.83;15.88;;;-0.70;99.90;;;;;;6240016;23;20079;-78
2022/11/21 04:30:14;;;;;;;28.65;15.65;;;-0.70;99.90;;;;;;6211838;23;20057;-78
2022/11/21 04:32:39;;;;;;;28.63;16.20;;;-0.70;99.90;;;;;;6213677;23;20341;-78
2022/11/21 04:35:06;;;;;;;26.52;14.95;;;-0.70;99.90;;;;;;6214215;23;20020;-78
2022/11/21 04:37:32;;;;;;;26.85;15.77;;;-0.80;99.90;;;;;;6213230;23;20020;-78
2022/11/21 04:39:57;;;;;;;28.65;16.58;;;-0.80;99.90;;;;;;6241412;23;20107;-78
2022/11/21 04:42:23;;;;;;;26.45;15.93;;;-0.80;99.90;;;;;;6213778;23;20110;-77
2022/11/21 04:44:49;;;;;;;31.20;17.13;;;-0.90;99.90;;;;;;6187677;23;20019;-77
2022/11/21 04:47:15;;;;;;;29.75;17.27;;;-0.90;99.90;;;;;;6213512;23;20081;-77
2022/11/21 04:49:40;;;;;;;30.90;17.50;;;-0.90;99.90;;;;;;6213668;23;20124;-77
2022/11/21 04:52:06;;;;;;;30.15;16.92;;;-0.90;99.90;;;;;;6241935;23;20027;-78
2022/11/21 04:54:32;;;;;;;33.28;17.90;;;-0.90;99.90;;;;;;6216021;23;20023;-78
2022/11/21 04:56:57;;;;;;;31.55;16.35;;;-0.90;99.90;;;;;;6242249;23;20012;-78
2022/11/21 04:59:23;;;;;;;28.70;16.80;;;-0.90;99.90;;;;;;6241663;23;20118;-78
2022/11/21 05:01:49;;;;;;;32.35;16.35;;;-0.90;99.90;;;;;;6214975;23;20023;-78
2022/11/21 05:04:14;;;;;;;34.05;17.92;;;-0.90;99.90;;;;;;6215150;23;20020;-78
2022/11/21 05:06:40;;;;;;;27.58;16.25;;;-0.90;99.90;;;;;;6241843;23;20047;-78
2022/11/21 05:09:05;;;;;;;27.85;16.13;;;-0.90;99.90;;;;;;6214684;23;20023;-78
2022/11/21 05:14:15;;;;;;;31.25;17.70;;;-0.90;99.90;;;;;;6242131;23;20016;-78
2022/11/21 05:16:41;;;;;;;31.00;16.67;;;-0.90;99.90;;;;;;6215478;23;20082;-77
2022/11/21 05:19:08;;;;;;;32.03;17.55;;;-1.00;99.90;;;;;;6241504;23;20502;-77
2022/11/21 05:21:34;;;;;;;27.67;16.13;;;-1.00;99.90;;;;;;6242715;23;20023;-78
2022/11/21 05:24:00;;;;;;;29.38;15.77;;;-1.00;99.90;;;;;;6214951;23;20020;-78
2022/11/21 05:26:25;;;;;;;27.98;15.73;;;-1.00;99.90;;;;;;6214894;23;20428;-78
2022/11/21 05:28:51;;;;;;;31.48;17.48;;;-0.90;99.90;;;;;;6214830;23;20016;-78
2022/11/21 05:31:17;;;;;;;31.92;18.33;;;-1.00;99.90;;;;;;6242249;23;20030;-77
2022/11/21 05:33:42;;;;;;;34.17;18.05;;;-0.90;99.90;;;;;;6241826;23;20024;-78
2022/11/21 05:36:08;;;;;;;31.50;16.98;;;-0.90;99.90;;;;;;6242028;23;20020;-77
2022/11/21 05:38:33;;;;;;;36.13;18.63;;;-0.90;99.90;;;;;;6215356;23;20023;-78
2022/11/21 05:40:59;;;;;;;33.70;18.52;;;-0.80;99.90;;;;;;6242474;23;20068;-78
2022/11/21 05:46:09;;;;;;;32.05;17.90;;;-0.90;99.90;;;;;;6241322;23;20326;-77
2022/11/21 05:48:35;;;;;;;34.70;18.75;;;-0.90;99.90;;;;;;6215575;23;20336;-78
2022/11/21 05:51:02;;;;;;;34.83;18.75;;;-0.90;99.90;;;;;;6215610;23;20020;-81
2022/11/21 05:53:28;;;;;;;34.08;18.45;;;-0.90;99.90;;;;;;6194281;23;20020;-81
2022/11/21 05:55:54;;;;;;;34.25;18.83;;;-0.90;99.90;;;;;;6246140;23;20020;-80
2022/11/21 05:58:20;;;;;;;34.30;18.50;;;-0.90;99.90;;;;;;6217863;23;20348;-81
2022/11/21 06:00:45;;;;;;;29.75;17.25;;;-0.90;99.90;;;;;;6218741;23;20442;-81
2022/11/21 06:03:26;;;;;;;35.78;18.08;;;-0.90;99.90;;;;;;6218321;23;20046;-81
2022/11/21 06:05:57;;;;;;;33.65;18.17;;;-0.90;99.90;;;;;;6245283;23;20042;-80
2022/11/21 06:08:22;;;;;;;35.78;17.42;;;-0.60;99.90;;;;;;6245931;23;20118;-81
2022/11/21 06:10:48;;;;;;;31.98;17.92;;;-0.90;99.90;;;;;;6244316;23;20039;-81
2022/11/21 06:13:23;;;;;;;34.63;18.88;;;-0.90;99.90;;;;;;6242001;23;20031;-81
2022/11/21 06:15:48;;;;;;;32.45;19.40;;;-0.90;99.90;;;;;;6214049;23;20070;-77
2022/11/21 06:18:15;;;;;;;35.75;21.25;;;-0.80;99.90;;;;;;6241517;23;20012;-76
2022/11/21 06:20:40;;;;;;;36.85;21.48;;;-1.00;99.90;;;;;;6214591;23;20404;-77
2022/11/21 06:23:06;;;;;;;35.53;19.20;;;-1.00;99.90;;;;;;6241336;23;20043;-77
2022/11/21 06:25:31;;;;;;;33.47;18.90;;;-1.00;99.90;;;;;;6214892;23;20024;-77
2022/11/21 06:27:59;;;;;;;34.65;19.23;;;-1.10;99.90;;;;;;6214534;23;20091;-77
2022/11/21 06:30:24;;;;;;;35.38;19.23;;;-1.10;99.90;;;;;;6241444;23;20445;-77
2022/11/21 06:32:50;;;;;;;35.28;19.00;;;-1.10;99.90;;;;;;6214523;23;20013;-77
2022/11/21 06:35:15;;;;;;;32.58;18.10;;;-1.20;99.90;;;;;;6205760;23;20819;-77
2022/11/21 06:37:41;;;;;;;33.53;19.95;;;-1.20;99.90;;;;;;6240200;23;20051;-77
2022/11/21 06:40:07;;;;;;;33.17;18.77;;;-1.10;99.90;;;;;;6242180;23;20012;-77
2022/11/21 06:42:33;;;;;;;31.52;17.25;;;-1.10;99.90;;;;;;6213302;23;20344;-78
2022/11/21 06:44:59;;;;;;;32.03;18.30;;;-1.20;99.90;;;;;;6238299;23;20062;-77
2022/11/21 06:47:24;;;;;;;38.08;20.38;;;-1.20;99.90;;;;;;6211399;23;20016;-78
2022/11/21 06:49:50;;;;;;;32.50;18.10;;;-1.20;99.90;;;;;;6238328;23;20019;-78
2022/11/21 06:52:15;;;;;;;31.10;16.80;;;-1.20;99.90;;;;;;6212383;23;20157;-77
2022/11/21 06:54:41;;;;;;;33.95;18.52;;;-1.20;99.90;;;;;;6212551;23;20020;-77
2022/11/21 06:57:06;;;;;;;33.22;18.48;;;-1.20;99.90;;;;;;6212196;23;20139;-78
2022/11/21 06:59:32;;;;;;;35.78;18.70;;;-1.30;99.90;;;;;;6240023;23;20009;-78
2022/11/21 07:01:58;;;;;;;34.08;19.20;;;-1.30;99.90;;;;;;6188374;23;20455;-77
2022/11/21 07:04:24;;;;;;;39.40;17.80;;;-1.30;99.90;;;;;;6240969;23;20046;-78
2022/11/21 07:06:49;;;;;;;36.67;20.20;;;-1.30;99.90;;;;;;6213717;23;20008;-78
2022/11/21 07:09:15;;;;;;;39.05;19.42;;;-1.30;99.90;;;;;;6239958;23;20043;-78
2022/11/21 07:11:41;;;;;;;32.97;18.55;;;-1.30;99.90;;;;;;6212974;23;20070;-78
2022/11/21 07:14:07;;;;;;;34.42;18.75;;;-1.30;99.90;;;;;;6240147;23;20012;-77
2022/11/21 07:16:33;;;;;;;32.15;18.58;;;-1.30;99.90;;;;;;6213128;23;20027;-78
2022/11/21 07:18:59;;;;;;;36.65;19.70;;;-1.30;99.90;;;;;;6240504;23;20019;-78
2022/11/21 07:21:25;;;;;;;37.85;19.67;;;-1.30;99.90;;;;;;6213083;23;20004;-78
2022/11/21 07:23:51;;;;;;;35.75;19.23;;;-1.00;99.90;;;;;;6213047;23;20063;-78
2022/11/21 07:26:16;;;;;;;42.72;21.42;;;-1.30;99.90;;;;;;6213134;23;20011;-78
2022/11/21 07:28:42;;;;;;;36.45;19.13;;;-1.30;99.90;;;;;;6240970;23;20106;-78
2022/11/21 07:31:09;;;;;;;39.60;21.00;;;-1.20;99.90;;;;;;6241551;23;20044;-78
2022/11/21 07:33:36;;;;;;;42.17;20.25;;;-1.20;99.90;;;;;;6214377;23;20111;-79
2022/11/21 07:36:02;;;;;;;37.55;19.67;;;-1.20;99.90;;;;;;6212486;23;20081;-78
2022/11/21 07:38:27;;;;;;;37.08;20.05;;;-1.20;99.90;;;;;;6212878;23;20094;-78
2022/11/21 07:40:55;;;;;;;42.25;21.23;;;-1.20;99.90;;;;;;6211804;23;20075;-78
2022/11/21 07:43:21;;;;;;;38.13;20.73;;;-1.20;99.90;;;;;;6240151;23;20023;-77
2022/11/21 07:45:47;;;;;;;38.75;20.65;;;-1.20;99.90;;;;;;6240484;23;20012;-78
2022/11/21 07:48:13;;;;;;;39.35;20.95;;;-1.20;99.90;;;;;;6188645;23;20051;-77
2022/11/21 07:50:39;;;;;;;37.22;20.77;;;-1.20;99.90;;;;;;6213723;23;20019;-78
2022/11/21 07:53:08;;;;;;;38.13;19.90;;;-1.20;99.90;;;;;;6214196;23;20015;-77
2022/11/21 07:55:34;;;;;;;38.78;20.17;;;-1.20;99.90;;;;;;6239679;23;20046;-78
2022/11/21 07:58:01;;;;;;;38.25;20.30;;;-1.10;99.90;;;;;;6213943;23;20091;-77
2022/11/21 08:00:28;;;;;;;38.38;20.15;;;-1.10;99.90;;;;;;6213301;23;20012;-77
2022/11/21 08:02:53;;;;;;;38.25;20.08;;;-1.10;99.90;;;;;;6189181;23;20015;-78
2022/11/21 08:05:19;;;;;;;43.50;22.52;;;-1.10;99.90;;;;;;6241165;23;20039;-78
2022/11/21 08:07:44;;;;;;;40.58;21.85;;;-1.10;99.90;;;;;;6213671;23;20072;-78
2022/11/21 08:10:10;;;;;;;43.03;23.92;;;-1.10;99.90;;;;;;6214130;23;20023;-78
2022/11/21 08:12:36;;;;;;;45.30;21.98;;;-1.10;99.90;;;;;;6214310;23;20019;-77
2022/11/21 08:15:03;;;;;;;40.47;22.20;;;-1.00;99.90;;;;;;6188746;23;20509;-78
2022/11/21 08:17:29;;;;;;;44.53;22.10;;;-1.00;99.90;;;;;;6240903;23;20012;-77
2022/11/21 08:19:57;;;;;;;40.20;22.05;;;-1.00;99.90;;;;;;6214335;23;20023;-78
2022/11/21 08:22:22;;;;;;;43.78;23.02;;;-0.90;99.90;;;;;;6213893;23;20066;-77
2022/11/21 08:24:48;;;;;;;41.05;21.90;;;-0.90;99.90;;;;;;6215218;23;20020;-77
2022/11/21 08:27:15;;;;;;;41.85;20.90;;;-0.90;99.90;;;;;;6243163;23;20095;-77
2022/11/21 08:29:41;;;;;;;40.55;21.98;;;-0.90;99.90;;;;;;6243182;23;20077;-77
2022/11/21 08:32:07;;;;;;;40.28;22.23;;;-0.80;99.90;;;;;;6215953;23;20035;-77
2022/11/21 08:34:32;;;;;;;41.35;22.75;;;-0.80;99.90;;;;;;6216292;23;20348;-78
2022/11/21 08:36:58;;;;;;;40.67;22.30;;;-0.70;99.90;;;;;;6215186;23;20056;-78
2022/11/21 08:39:24;;;;;;;40.13;21.63;;;-0.70;99.90;;;;;;6215645;23;20027;-78
2022/11/21 08:42:02;;;;;;;41.55;23.02;;;-0.70;99.90;;;;;;6243095;23;20020;-78
2022/11/21 08:44:34;;;;;;;38.63;22.02;;;-0.60;99.90;;;;;;6215654;23;20016;-78
2022/11/21 08:47:00;;;;;;;43.38;22.40;;;-0.50;99.90;;;;;;6215956;23;20066;-78
2022/11/21 08:49:27;;;;;;;41.03;22.52;;;-0.40;99.90;;;;;;6242811;23;20387;-78
2022/11/21 08:51:53;;;;;;;38.33;21.80;;;-0.30;99.90;;;;;;6241859;23;20016;-78
2022/11/21 08:54:21;;;;;;;40.80;22.27;;;-0.20;99.90;;;;;;6216043;23;20026;-78
2022/11/21 08:56:47;;;;;;;40.80;21.35;;;-0.10;99.90;;;;;;6215263;23;20020;-78
2022/11/21 08:59:13;;;;;;;47.20;23.48;;;0.10;99.90;;;;;;6190898;23;20087;-78
2022/11/21 09:01:38;;;;;;;39.60;21.42;;;0.20;99.90;;;;;;6242875;23;20051;-78
2022/11/21 09:04:05;;;;;;;33.17;19.10;;;0.30;99.90;;;;;;6242141;23;20012;-78
2022/11/21 09:06:30;;;;;;;35.92;20.77;;;0.40;99.90;;;;;;6215523;23;20008;-78
2022/11/21 09:08:56;;;;;;;33.20;18.88;;;0.50;99.90;;;;;;6215256;23;20865;-78
2022/11/21 09:11:23;;;;;;;34.03;19.95;;;0.60;99.90;;;;;;6215460;23;20023;-78
2022/11/21 09:19:18;;;;;;;35.92;19.38;;;0.80;99.90;;;;;;6242480;23;19911;-78
2022/11/21 09:21:44;;;;;;;36.90;20.67;;;0.90;99.90;;;;;;6242139;23;20062;-78
2022/11/21 09:24:10;;;;;;;35.50;19.77;;;0.90;99.90;;;;;;6215351;23;20012;-78
2022/11/21 09:26:35;;;;;;;31.88;18.77;;;1.00;99.90;;;;;;6215716;23;20392;-78
2022/11/21 09:29:02;;;;;;;28.98;17.48;;;1.00;99.90;;;;;;6215541;23;20020;-78
2022/11/21 09:31:27;;;;;;;34.90;19.40;;;1.10;99.90;;;;;;6242690;23;20385;-78
2022/11/21 09:33:53;;;;;;;35.85;20.42;;;1.20;99.90;;;;;;6215259;23;20031;-78
2022/11/21 09:36:19;;;;;;;32.83;19.65;;;1.20;99.90;;;;;;6241689;23;20098;-78
2022/11/21 09:38:44;;;;;;;36.63;19.58;;;1.30;99.90;;;;;;6215536;23;20019;-78
2022/11/21 09:44:30;;;;;;;33.17;18.88;;;1.40;99.90;;;;;;6215214;23;20028;-78
2022/11/21 09:47:21;;;;;;;32.70;18.38;;;1.50;99.90;;;;;;6215284;23;20074;-78
2022/11/21 09:49:56;;;;;;;30.88;18.35;;;1.50;99.90;;;;;;6241850;23;20039;-78
2022/11/21 09:52:29;;;;;;;35.60;19.55;;;1.50;99.90;;;;;;6241869;23;20015;-78
2022/11/21 09:55:00;;;;;;;33.55;18.45;;;1.60;99.90;;;;;;6242224;23;20024;-78
2022/11/21 09:57:26;;;;;;;31.67;18.00;;;1.60;99.90;;;;;;6215237;23;20024;-78
2022/11/21 09:59:52;;;;;;;30.58;18.50;;;1.60;99.90;;;;;;6215423;23;20066;-78
2022/11/21 10:02:21;;;;;;;33.60;18.88;;;1.60;99.90;;;;;;6215177;23;20491;-78
2022/11/21 10:04:47;;;;;;;30.73;17.63;;;1.70;99.90;;;;;;6214246;23;20023;-78
2022/11/21 10:07:18;;;;;;;30.20;18.55;;;1.70;99.90;;;;;;6190326;23;20019;-78
2022/11/21 10:10:17;;;;;;;30.10;19.52;;;1.70;99.90;;;;;;6242623;23;20012;-78
2022/11/21 10:12:55;;;;;;;32.35;18.23;;;1.70;99.90;;;;;;6242263;23;20432;-79
2022/11/21 10:15:37;;;;;;;31.92;18.75;;;1.70;99.90;;;;;;6242416;23;20019;-78
2022/11/21 10:18:40;;;;;;;31.13;17.75;;;1.70;99.90;;;;;;6215228;23;20046;-78
2022/11/21 10:21:36;;;;;;;28.83;16.80;;;1.80;99.90;;;;;;6241710;23;20463;-78
2022/11/21 10:24:09;;;;;;;27.38;16.45;;;1.80;99.90;;;;;;6199465;23;20023;-78
2022/11/21 10:26:47;;;;;;;32.97;18.30;;;1.80;99.90;;;;;;6215618;23;20046;-78
2022/11/21 10:29:42;;;;;;;29.65;17.67;;;1.90;99.90;;;;;;6242119;23;20008;-78
2022/11/21 10:32:25;;;;;;;31.40;18.33;;;1.90;99.90;;;;;;6240018;23;20016;-78
2022/11/21 10:34:56;;;;;;;31.98;17.65;;;1.90;99.90;;;;;;6214353;23;20015;-78
2022/11/21 10:37:33;;;;;;;31.13;17.55;;;1.90;99.90;;;;;;6189978;23;20024;-78
2022/11/21 10:40:13;;;;;;;25.52;16.23;;;2.00;99.90;;;;;;6241458;23;20019;-78
2022/11/21 10:46:00;;;;;;;29.58;17.55;;;2.10;99.90;;;;;;6241929;23;20024;-77
2022/11/21 10:48:26;;;;;;;27.88;16.63;;;2.10;99.90;;;;;;6213723;23;20023;-78
2022/11/21 10:51:21;;;;;;;28.00;15.85;;;2.10;99.90;;;;;;6214722;23;20506;-78
2022/11/21 10:56:45;;;;;;;25.27;15.75;;;2.20;99.90;;;;;;6241509;23;20020;-78
2022/11/21 10:59:19;;;;;;;25.85;15.38;;;2.20;99.90;;;;;;6214171;23;20042;-77
2022/11/21 11:01:56;;;;;;;24.52;14.55;;;2.20;99.90;;;;;;6213991;23;20016;-78
2022/11/21 11:04:22;;;;;;;28.33;15.68;;;2.20;99.90;;;;;;6241253;23;20020;-78
2022/11/21 11:06:48;;;;;;;27.40;14.98;;;2.20;99.90;;;;;;6241143;23;20024;-77
2022/11/21 11:09:27;;;;;;;27.02;14.57;;;2.30;99.90;;;;;;6214333;23;20020;-78
2022/11/21 11:12:13;;;;;;;27.63;14.90;;;2.30;99.90;;;;;;6241520;23;20373;-77
2022/11/21 11:14:39;;;;;;;24.02;14.52;;;2.30;99.90;;;;;;6214053;23;20585;-78
2022/11/21 11:17:04;;;;;;;25.67;14.98;;;2.20;99.90;;;;;;6241025;23;20019;-78
2022/11/21 11:19:30;;;;;;;26.55;15.10;;;2.20;99.90;;;;;;6241423;23;20017;-78
2022/11/21 11:21:56;;;;;;;24.35;13.80;;;2.30;99.90;;;;;;6241542;23;20012;-78
2022/11/21 11:24:27;;;;;;;26.13;15.98;;;2.20;99.90;;;;;;6241491;23;20012;-78
2022/11/21 11:27:01;;;;;;;27.80;14.98;;;2.20;99.90;;;;;;6241574;23;20008;-77
2022/11/21 11:29:29;;;;;;;25.77;14.52;;;2.20;99.90;;;;;;6213993;23;20020;-78
2022/11/21 11:31:55;;;;;;;28.02;14.68;;;2.10;99.90;;;;;;6240965;23;20008;-77
2022/11/21 11:34:21;;;;;;;26.00;14.93;;;2.10;99.90;;;;;;6214773;23;20020;-78
2022/11/21 11:36:54;;;;;;;24.20;15.02;;;2.00;99.90;;;;;;6240642;23;20484;-78
2022/11/21 11:39:26;;;;;;;24.85;14.52;;;2.00;99.90;;;;;;6241212;23;20012;-78
2022/11/21 11:48:09;;;;;;;23.55;13.48;;;1.90;99.90;;;;;;6241139;23;20368;-78
2022/11/21 11:51:03;;;;;;;25.70;14.45;;;1.90;99.90;;;;;;6241352;23;20042;-79
2022/11/21 11:53:35;;;;;;;28.70;14.98;;;1.90;99.90;;;;;;6234935;23;20449;-78
2022/11/21 11:56:16;;;;;;;23.60;13.30;;;1.90;99.90;;;;;;6241069;23;20317;-77
2022/11/21 11:59:06;;;;;;;21.92;12.60;;;1.90;99.90;;;;;;6214996;23;20024;-78
2022/11/21 12:01:44;;;;;;;26.35;14.15;;;2.00;99.90;;;;;;6242940;23;20016;-78
2022/11/21 12:04:11;;;;;;;23.80;12.95;;;2.10;99.90;;;;;;6243482;23;20369;-78
2022/11/21 12:07:01;;;;;;;23.17;13.35;;;2.10;99.90;;;;;;6242975;23;20019;-78
2022/11/21 12:09:33;;;;;;;22.70;12.82;;;2.20;99.90;;;;;;6242823;23;20460;-78
2022/11/21 12:12:15;;;;;;;25.15;13.07;;;2.20;99.90;;;;;;6243380;23;20012;-77
2022/11/21 12:18:21;;;;;;;22.95;11.73;;;2.30;99.90;;;;;;6243012;23;20023;-78
2022/11/21 12:21:01;;;;;;;17.73;11.57;;;2.40;99.90;;;;;;6243021;23;20020;-78
2022/11/21 12:23:52;;;;;;;20.23;11.38;;;2.50;99.90;;;;;;6215879;23;20480;-78
2022/11/21 12:26:23;;;;;;;22.00;12.43;;;2.60;99.90;;;;;;6227918;23;20437;-78
2022/11/21 12:29:04;;;;;;;20.00;11.27;;;2.70;99.90;;;;;;6242362;23;20410;-78
2022/11/21 12:31:56;;;;;;;19.70;11.68;;;2.80;99.90;;;;;;6243179;23;20004;-78
2022/11/21 12:35:03;;;;;;;21.50;11.43;;;2.90;99.90;;;;;;6242864;23;20095;-77
2022/11/21 12:37:58;;;;;;;19.38;11.55;;;3.00;99.90;;;;;;6119670;23;20476;-78
2022/11/21 12:40:44;;;;;;;21.27;11.93;;;3.10;99.90;;;;;;6120271;23;20474;-78
2022/11/21 12:43:36;;;;;;;23.58;14.60;;;3.20;99.90;;;;;;6114297;23;20018;-78
2022/11/21 12:46:25;;;;;;;25.73;15.02;;;3.20;99.90;;;;;;6119961;23;20077;-78
2022/11/21 12:55:01;;;;;;;23.50;14.23;;;3.30;99.90;;;;;;6119615;23;20026;-78
2022/11/21 12:57:36;;;;;;;21.60;13.25;;;3.30;99.90;;;;;;6120350;23;20063;-78
2022/11/21 13:00:14;;;;;;;27.00;14.07;;;3.70;99.90;;;;;;6119582;23;20085;-78
2022/11/21 13:02:48;;;;;;;26.60;13.80;;;3.30;99.90;;;;;;6120023;23;20014;-78
2022/11/21 13:05:27;;;;;;;25.88;14.45;;;3.30;99.90;;;;;;6120054;23;20017;-77
2022/11/21 13:08:12;;;;;;;19.58;12.70;;;3.30;99.90;;;;;;6120222;23;20025;-78
2022/11/21 13:10:38;;;;;;;;;;;3.40;99.90;;;;;;6095686;23;20455;-78
2022/11/21 13:13:31;;;;;;;23.13;12.75;;;3.40;99.90;;;;;;6168592;23;19923;-78
2022/11/21 13:16:09;;;;;;;28.88;13.40;;;3.40;99.90;;;;;;6229516;23;20351;-81
2022/11/21 13:18:44;;;;;;;23.10;13.50;;;3.40;99.90;;;;;;6215047;23;20023;-78
2022/11/21 13:21:39;;;;;;;22.98;12.98;;;3.40;99.90;;;;;;6242326;23;20066;-78